createdAt,value
2022-10-25T12:43:01.593Z,2516.00
2022-10-25T12:48:01.394Z,4296.00
2022-10-25T12:53:01.363Z,4392.00
2022-10-25T12:58:01.288Z,4296.00
2022-10-25T13:03:01.403Z,4180.00
2022-10-25T13:08:01.182Z,4304.00
2022-10-25T13:13:01.142Z,4076.00
2022-10-25T13:18:01.065Z,3716.00
2022-10-25T13:23:01.151Z,2656.00
2022-10-25T13:28:00.956Z,2132.00
2022-10-25T13:33:00.956Z,2052.00
2022-10-25T13:38:00.851Z,2504.00
2022-10-25T13:43:00.946Z,3540.00
2022-10-25T13:48:00.734Z,3308.00
2022-10-25T13:53:02.520Z,3336.00
2022-10-25T13:58:00.636Z,3320.00
2022-10-25T14:03:00.602Z,3272.00
2022-10-25T14:08:00.525Z,3136.00
2022-10-25T14:13:00.469Z,2888.00
2022-10-25T14:18:00.421Z,2408.00
2022-10-25T14:23:00.384Z,2044.00
2022-10-25T14:28:00.313Z,2184.00
2022-10-25T14:33:00.238Z,2896.00
2022-10-25T14:38:00.203Z,2588.00
2022-10-25T14:43:00.164Z,2608.00
2022-10-25T14:48:00.099Z,2400.00
2022-10-25T14:53:01.216Z,2068.00
2022-10-25T14:57:59.985Z,2048.00
2022-10-25T15:02:59.949Z,1956.00
2022-10-25T15:07:59.890Z,1800.00
2022-10-25T15:12:59.822Z,1580.00
2022-10-25T15:17:59.754Z,1492.00
2022-10-25T15:22:59.727Z,1308.00
2022-10-25T15:27:59.655Z,936.00
2022-10-25T15:32:59.598Z,840.00
2022-10-25T15:37:59.546Z,676.00
2022-10-25T15:42:59.514Z,524.00
2022-10-25T15:47:59.432Z,468.00
2022-10-25T15:52:59.470Z,372.00
2022-10-25T15:57:59.329Z,316.00
2022-10-25T16:02:59.301Z,244.00
2022-10-25T16:07:59.210Z,180.00
2022-10-25T16:12:59.579Z,140.00
2022-10-25T16:17:59.126Z,116.00
2022-10-25T16:22:59.075Z,76.00
2022-10-25T16:27:59.007Z,40.00
2022-10-25T16:32:58.952Z,16.00
2022-10-25T16:37:58.948Z,4.00
2022-10-25T16:42:58.864Z,4.00
2022-10-25T16:47:58.847Z,0.00
2022-10-25T16:52:58.755Z,0.00
2022-10-25T16:57:58.674Z,0.00
2022-10-25T17:02:58.666Z,0.00
2022-10-25T17:07:58.566Z,0.00
2022-10-25T17:12:58.600Z,0.00
2022-10-25T17:17:58.457Z,0.00
2022-10-25T17:22:58.447Z,0.00
2022-10-25T17:27:58.351Z,0.00
2022-10-25T17:32:58.301Z,0.00
2022-10-25T17:37:58.251Z,0.00
2022-10-25T17:42:58.201Z,0.00
2022-10-25T17:47:58.149Z,0.00
2022-10-25T17:52:58.076Z,0.00
2022-10-25T17:57:58.113Z,0.00
2022-10-25T18:02:57.991Z,0.00
2022-10-25T18:08:04.967Z,0.00
2022-10-25T18:12:57.860Z,0.00
2022-10-25T18:17:57.823Z,0.00
2022-10-25T18:22:57.766Z,0.00
2022-10-25T18:27:57.711Z,0.00
2022-10-25T18:32:57.642Z,0.00
2022-10-25T18:37:57.599Z,0.00
2022-10-25T18:42:57.568Z,0.00
2022-10-25T18:47:57.492Z,0.00
2022-10-25T18:52:57.427Z,0.00
2022-10-25T18:57:57.385Z,0.00
2022-10-25T19:02:57.349Z,0.00
2022-10-25T19:07:57.279Z,0.00
2022-10-25T19:12:57.232Z,0.00
2022-10-25T19:17:57.169Z,0.00
2022-10-25T19:22:57.142Z,0.00
2022-10-25T19:27:57.044Z,0.00
2022-10-25T19:32:57.009Z,0.00
2022-10-25T19:37:56.979Z,0.00
2022-10-25T19:42:56.905Z,0.00
2022-10-25T19:47:56.839Z,0.00
2022-10-25T19:52:56.798Z,0.00
2022-10-25T19:57:56.719Z,0.00
2022-10-25T20:02:56.700Z,0.00
2022-10-25T20:07:56.629Z,0.00
2022-10-25T20:12:56.556Z,0.00
2022-10-25T20:17:56.511Z,0.00
2022-10-25T20:22:56.492Z,0.00
2022-10-25T20:27:56.479Z,0.00
2022-10-25T20:32:56.348Z,0.00
2022-10-25T20:37:56.293Z,0.00
2022-10-25T20:42:56.276Z,0.00
2022-10-25T20:47:56.171Z,0.00
2022-10-25T20:53:09.633Z,0.00
2022-10-25T20:57:57.082Z,0.00
2022-10-25T21:02:56.023Z,0.00
2022-10-25T21:07:55.963Z,0.00
2022-10-25T21:12:55.904Z,0.00
2022-10-25T21:17:55.839Z,0.00
2022-10-25T21:22:55.836Z,0.00
2022-10-25T21:27:55.731Z,0.00
2022-10-25T21:32:55.695Z,0.00
2022-10-25T21:37:55.923Z,0.00
2022-10-25T21:42:55.597Z,0.00
2022-10-25T21:47:55.536Z,0.00
2022-10-25T21:52:55.461Z,0.00
2022-10-25T21:57:55.841Z,0.00
2022-10-25T22:02:55.386Z,0.00
2022-10-25T22:07:55.290Z,0.00
2022-10-25T22:12:55.245Z,0.00
2022-10-25T22:17:55.211Z,0.00
2022-10-25T22:22:55.161Z,0.00
2022-10-25T22:27:55.082Z,0.00
2022-10-25T22:32:55.025Z,0.00
2022-10-25T22:37:54.988Z,0.00
2022-10-25T22:42:54.955Z,0.00
2022-10-25T22:47:54.864Z,0.00
2022-10-25T22:52:54.814Z,0.00
2022-10-25T22:57:54.734Z,0.00
2022-10-25T23:02:54.800Z,0.00
2022-10-25T23:07:54.651Z,0.00
2022-10-25T23:12:54.571Z,0.00
2022-10-25T23:17:54.532Z,0.00
2022-10-25T23:22:54.491Z,0.00
2022-10-25T23:27:54.407Z,0.00
